sensor_id;sensor_type;location;lat;lon;timestamp;P1;durP1;ratioP1;P2;durP2;ratioP2
64227;SDS011;50546;49.146;10.616;2022-08-19T00:00:25;21.75;;;16.25;;
64227;SDS011;50546;49.146;10.616;2022-08-19T00:02:52;24.33;;;16.33;;
64227;SDS011;50546;49.146;10.616;2022-08-19T00:05:18;22.00;;;16.90;;
64227;SDS011;50546;49.146;10.616;2022-08-19T00:07:45;21.65;;;17.15;;
64227;SDS011;50546;49.146;10.616;2022-08-19T00:10:11;25.05;;;16.98;;
64227;SDS011;50546;49.146;10.616;2022-08-19T00:12:38;25.83;;;19.08;;
64227;SDS011;50546;49.146;10.616;2022-08-19T00:15:05;24.75;;;18.17;;
64227;SDS011;50546;49.146;10.616;2022-08-19T00:17:33;25.17;;;19.02;;
64227;SDS011;50546;49.146;10.616;2022-08-19T00:19:58;24.63;;;18.90;;
64227;SDS011;50546;49.146;10.616;2022-08-19T00:22:24;25.95;;;18.23;;
64227;SDS011;50546;49.146;10.616;2022-08-19T00:24:51;27.45;;;18.70;;
64227;SDS011;50546;49.146;10.616;2022-08-19T00:27:17;25.55;;;18.65;;
64227;SDS011;50546;49.146;10.616;2022-08-19T00:29:42;25.88;;;18.38;;
64227;SDS011;50546;49.146;10.616;2022-08-19T00:32:07;24.33;;;18.85;;
64227;SDS011;50546;49.146;10.616;2022-08-19T00:34:33;23.55;;;17.98;;
64227;SDS011;50546;49.146;10.616;2022-08-19T00:36:58;24.23;;;18.20;;
64227;SDS011;50546;49.146;10.616;2022-08-19T00:39:24;25.17;;;18.92;;
64227;SDS011;50546;49.146;10.616;2022-08-19T00:41:50;25.55;;;18.67;;
64227;SDS011;50546;49.146;10.616;2022-08-19T00:44:20;25.70;;;18.90;;
64227;SDS011;50546;49.146;10.616;2022-08-19T00:46:49;25.35;;;18.75;;
64227;SDS011;50546;49.146;10.616;2022-08-19T00:49:16;24.17;;;18.70;;
64227;SDS011;50546;49.146;10.616;2022-08-19T00:51:51;25.77;;;19.42;;
64227;SDS011;50546;49.146;10.616;2022-08-19T00:54:23;27.80;;;19.15;;
64227;SDS011;50546;49.146;10.616;2022-08-19T00:56:49;26.75;;;18.42;;
64227;SDS011;50546;49.146;10.616;2022-08-19T00:59:16;26.02;;;19.25;;
64227;SDS011;50546;49.146;10.616;2022-08-19T01:01:43;25.27;;;19.05;;
64227;SDS011;50546;49.146;10.616;2022-08-19T01:04:10;24.25;;;18.67;;
64227;SDS011;50546;49.146;10.616;2022-08-19T01:06:36;25.88;;;18.73;;
64227;SDS011;50546;49.146;10.616;2022-08-19T01:09:04;26.40;;;19.77;;
64227;SDS011;50546;49.146;10.616;2022-08-19T01:11:32;28.23;;;20.50;;
64227;SDS011;50546;49.146;10.616;2022-08-19T01:14:00;25.15;;;19.35;;
64227;SDS011;50546;49.146;10.616;2022-08-19T01:16:26;27.20;;;18.67;;
64227;SDS011;50546;49.146;10.616;2022-08-19T01:18:53;28.67;;;19.55;;
64227;SDS011;50546;49.146;10.616;2022-08-19T01:23:52;25.70;;;19.17;;
64227;SDS011;50546;49.146;10.616;2022-08-19T01:26:19;25.67;;;19.80;;
64227;SDS011;50546;49.146;10.616;2022-08-19T01:28:47;25.77;;;19.40;;
64227;SDS011;50546;49.146;10.616;2022-08-19T01:31:16;26.20;;;19.35;;
64227;SDS011;50546;49.146;10.616;2022-08-19T01:33:44;22.98;;;18.08;;
64227;SDS011;50546;49.146;10.616;2022-08-19T01:36:11;23.70;;;18.38;;
64227;SDS011;50546;49.146;10.616;2022-08-19T01:38:39;26.65;;;18.83;;
64227;SDS011;50546;49.146;10.616;2022-08-19T01:41:08;25.35;;;18.10;;
64227;SDS011;50546;49.146;10.616;2022-08-19T01:43:35;26.50;;;19.00;;
64227;SDS011;50546;49.146;10.616;2022-08-19T01:46:01;24.95;;;18.88;;
64227;SDS011;50546;49.146;10.616;2022-08-19T01:48:28;26.13;;;19.58;;
64227;SDS011;50546;49.146;10.616;2022-08-19T01:50:58;25.65;;;18.27;;
64227;SDS011;50546;49.146;10.616;2022-08-19T01:53:24;26.13;;;18.38;;
64227;SDS011;50546;49.146;10.616;2022-08-19T01:55:49;25.77;;;18.70;;
64227;SDS011;50546;49.146;10.616;2022-08-19T01:58:17;25.35;;;19.00;;
64227;SDS011;50546;49.146;10.616;2022-08-19T02:00:46;27.02;;;18.20;;
64227;SDS011;50546;49.146;10.616;2022-08-19T02:03:11;27.05;;;19.40;;
64227;SDS011;50546;49.146;10.616;2022-08-19T02:05:37;24.33;;;18.83;;
64227;SDS011;50546;49.146;10.616;2022-08-19T02:08:03;25.77;;;18.08;;
64227;SDS011;50546;49.146;10.616;2022-08-19T02:10:29;26.17;;;18.00;;
64227;SDS011;50546;49.146;10.616;2022-08-19T02:12:54;27.30;;;19.65;;
64227;SDS011;50546;49.146;10.616;2022-08-19T02:15:20;27.58;;;18.95;;
64227;SDS011;50546;49.146;10.616;2022-08-19T02:17:46;26.05;;;18.52;;
64227;SDS011;50546;49.146;10.616;2022-08-19T02:20:12;24.77;;;19.20;;
64227;SDS011;50546;49.146;10.616;2022-08-19T02:22:38;26.92;;;19.00;;
64227;SDS011;50546;49.146;10.616;2022-08-19T02:25:06;26.88;;;19.38;;
64227;SDS011;50546;49.146;10.616;2022-08-19T02:27:32;25.60;;;19.20;;
64227;SDS011;50546;49.146;10.616;2022-08-19T02:29:58;25.50;;;19.13;;
64227;SDS011;50546;49.146;10.616;2022-08-19T02:32:24;25.15;;;18.58;;
64227;SDS011;50546;49.146;10.616;2022-08-19T02:34:50;25.00;;;18.35;;
64227;SDS011;50546;49.146;10.616;2022-08-19T02:37:15;27.02;;;18.75;;
64227;SDS011;50546;49.146;10.616;2022-08-19T02:39:59;25.00;;;17.70;;
64227;SDS011;50546;49.146;10.616;2022-08-19T02:42:24;27.42;;;18.58;;
64227;SDS011;50546;49.146;10.616;2022-08-19T02:44:50;23.90;;;17.85;;
64227;SDS011;50546;49.146;10.616;2022-08-19T02:47:16;26.67;;;19.27;;
64227;SDS011;50546;49.146;10.616;2022-08-19T02:49:43;26.05;;;18.77;;
64227;SDS011;50546;49.146;10.616;2022-08-19T02:52:09;26.60;;;18.38;;
64227;SDS011;50546;49.146;10.616;2022-08-19T02:54:36;28.80;;;19.75;;
64227;SDS011;50546;49.146;10.616;2022-08-19T02:57:02;27.10;;;18.23;;
64227;SDS011;50546;49.146;10.616;2022-08-19T02:59:29;28.48;;;19.75;;
64227;SDS011;50546;49.146;10.616;2022-08-19T03:01:55;25.48;;;19.23;;
64227;SDS011;50546;49.146;10.616;2022-08-19T03:04:20;25.02;;;17.67;;
64227;SDS011;50546;49.146;10.616;2022-08-19T03:06:46;27.30;;;18.67;;
64227;SDS011;50546;49.146;10.616;2022-08-19T03:09:12;29.80;;;19.40;;
64227;SDS011;50546;49.146;10.616;2022-08-19T03:11:38;29.83;;;19.00;;
64227;SDS011;50546;49.146;10.616;2022-08-19T03:14:04;26.15;;;19.08;;
64227;SDS011;50546;49.146;10.616;2022-08-19T03:16:31;25.75;;;18.52;;
64227;SDS011;50546;49.146;10.616;2022-08-19T03:18:59;26.08;;;18.02;;
64227;SDS011;50546;49.146;10.616;2022-08-19T03:21:26;28.25;;;18.88;;
64227;SDS011;50546;49.146;10.616;2022-08-19T03:23:59;28.17;;;19.08;;
64227;SDS011;50546;49.146;10.616;2022-08-19T03:26:27;26.42;;;18.40;;
64227;SDS011;50546;49.146;10.616;2022-08-19T03:28:52;30.17;;;19.55;;
64227;SDS011;50546;49.146;10.616;2022-08-19T03:31:19;29.10;;;18.98;;
64227;SDS011;50546;49.146;10.616;2022-08-19T03:33:49;27.35;;;19.00;;
64227;SDS011;50546;49.146;10.616;2022-08-19T03:36:17;30.48;;;20.27;;
64227;SDS011;50546;49.146;10.616;2022-08-19T03:38:46;29.45;;;19.45;;
64227;SDS011;50546;49.146;10.616;2022-08-19T03:41:15;27.50;;;18.65;;
64227;SDS011;50546;49.146;10.616;2022-08-19T03:43:42;30.75;;;19.58;;
64227;SDS011;50546;49.146;10.616;2022-08-19T03:46:12;29.45;;;19.67;;
64227;SDS011;50546;49.146;10.616;2022-08-19T03:48:39;32.13;;;20.25;;
64227;SDS011;50546;49.146;10.616;2022-08-19T03:51:07;30.55;;;19.63;;
64227;SDS011;50546;49.146;10.616;2022-08-19T03:53:33;31.50;;;20.58;;
64227;SDS011;50546;49.146;10.616;2022-08-19T03:56:00;28.63;;;19.08;;
64227;SDS011;50546;49.146;10.616;2022-08-19T03:58:27;29.38;;;19.63;;
64227;SDS011;50546;49.146;10.616;2022-08-19T04:00:54;30.45;;;19.90;;
64227;SDS011;50546;49.146;10.616;2022-08-19T04:03:21;30.75;;;19.55;;
64227;SDS011;50546;49.146;10.616;2022-08-19T04:05:47;31.25;;;20.45;;
64227;SDS011;50546;49.146;10.616;2022-08-19T04:08:13;28.77;;;19.73;;
64227;SDS011;50546;49.146;10.616;2022-08-19T04:10:43;27.98;;;18.58;;
64227;SDS011;50546;49.146;10.616;2022-08-19T04:13:08;28.85;;;18.52;;
64227;SDS011;50546;49.146;10.616;2022-08-19T04:15:38;30.83;;;19.65;;
64227;SDS011;50546;49.146;10.616;2022-08-19T04:18:06;28.75;;;19.05;;
64227;SDS011;50546;49.146;10.616;2022-08-19T04:20:37;28.10;;;17.58;;
64227;SDS011;50546;49.146;10.616;2022-08-19T04:23:13;27.90;;;18.52;;
64227;SDS011;50546;49.146;10.616;2022-08-19T04:25:40;28.92;;;19.48;;
64227;SDS011;50546;49.146;10.616;2022-08-19T04:28:08;28.38;;;18.65;;
64227;SDS011;50546;49.146;10.616;2022-08-19T04:30:53;28.13;;;18.67;;
64227;SDS011;50546;49.146;10.616;2022-08-19T04:33:21;29.35;;;19.52;;
64227;SDS011;50546;49.146;10.616;2022-08-19T04:35:50;27.60;;;18.17;;
64227;SDS011;50546;49.146;10.616;2022-08-19T04:38:19;26.70;;;18.20;;
64227;SDS011;50546;49.146;10.616;2022-08-19T04:40:48;29.47;;;19.13;;
64227;SDS011;50546;49.146;10.616;2022-08-19T04:43:33;28.77;;;18.63;;
64227;SDS011;50546;49.146;10.616;2022-08-19T04:46:19;30.02;;;19.38;;
64227;SDS011;50546;49.146;10.616;2022-08-19T04:48:45;28.13;;;19.10;;
64227;SDS011;50546;49.146;10.616;2022-08-19T04:51:11;29.40;;;20.13;;
64227;SDS011;50546;49.146;10.616;2022-08-19T04:53:39;29.80;;;18.77;;
64227;SDS011;50546;49.146;10.616;2022-08-19T04:56:06;26.38;;;18.00;;
64227;SDS011;50546;49.146;10.616;2022-08-19T04:58:34;29.88;;;19.15;;
64227;SDS011;50546;49.146;10.616;2022-08-19T05:01:00;26.33;;;18.70;;
64227;SDS011;50546;49.146;10.616;2022-08-19T05:03:26;28.38;;;19.48;;
64227;SDS011;50546;49.146;10.616;2022-08-19T05:05:51;28.27;;;19.73;;
64227;SDS011;50546;49.146;10.616;2022-08-19T05:08:18;26.75;;;18.92;;
64227;SDS011;50546;49.146;10.616;2022-08-19T05:10:49;29.75;;;19.40;;
64227;SDS011;50546;49.146;10.616;2022-08-19T05:13:16;29.05;;;18.75;;
64227;SDS011;50546;49.146;10.616;2022-08-19T05:15:44;30.23;;;20.15;;
64227;SDS011;50546;49.146;10.616;2022-08-19T05:18:17;29.80;;;19.20;;
64227;SDS011;50546;49.146;10.616;2022-08-19T05:21:05;28.98;;;18.80;;
64227;SDS011;50546;49.146;10.616;2022-08-19T05:23:50;28.65;;;18.65;;
64227;SDS011;50546;49.146;10.616;2022-08-19T05:26:15;28.17;;;19.33;;
64227;SDS011;50546;49.146;10.616;2022-08-19T05:28:41;31.55;;;19.73;;
64227;SDS011;50546;49.146;10.616;2022-08-19T05:31:06;29.48;;;20.08;;
64227;SDS011;50546;49.146;10.616;2022-08-19T05:33:31;30.30;;;20.13;;
64227;SDS011;50546;49.146;10.616;2022-08-19T05:35:56;29.85;;;20.10;;
64227;SDS011;50546;49.146;10.616;2022-08-19T05:38:22;28.13;;;19.83;;
64227;SDS011;50546;49.146;10.616;2022-08-19T05:40:47;33.05;;;20.27;;
64227;SDS011;50546;49.146;10.616;2022-08-19T05:43:14;30.23;;;18.90;;
64227;SDS011;50546;49.146;10.616;2022-08-19T05:45:43;29.27;;;20.05;;
64227;SDS011;50546;49.146;10.616;2022-08-19T05:48:12;30.50;;;19.98;;
64227;SDS011;50546;49.146;10.616;2022-08-19T05:50:39;30.45;;;20.20;;
64227;SDS011;50546;49.146;10.616;2022-08-19T05:53:06;30.00;;;20.13;;
64227;SDS011;50546;49.146;10.616;2022-08-19T05:55:32;30.52;;;20.40;;
64227;SDS011;50546;49.146;10.616;2022-08-19T05:57:57;29.83;;;20.20;;
64227;SDS011;50546;49.146;10.616;2022-08-19T06:00:23;30.58;;;20.30;;
64227;SDS011;50546;49.146;10.616;2022-08-19T06:02:48;33.63;;;20.35;;
64227;SDS011;50546;49.146;10.616;2022-08-19T06:05:14;31.60;;;19.42;;
64227;SDS011;50546;49.146;10.616;2022-08-19T06:07:39;30.65;;;19.58;;
64227;SDS011;50546;49.146;10.616;2022-08-19T06:10:06;30.05;;;20.00;;
64227;SDS011;50546;49.146;10.616;2022-08-19T06:12:33;31.23;;;20.35;;
64227;SDS011;50546;49.146;10.616;2022-08-19T06:15:01;30.10;;;20.40;;
64227;SDS011;50546;49.146;10.616;2022-08-19T06:17:29;30.63;;;20.73;;
64227;SDS011;50546;49.146;10.616;2022-08-19T06:19:55;29.55;;;20.23;;
64227;SDS011;50546;49.146;10.616;2022-08-19T06:22:20;29.98;;;19.17;;
64227;SDS011;50546;49.146;10.616;2022-08-19T06:24:46;30.40;;;20.60;;
64227;SDS011;50546;49.146;10.616;2022-08-19T06:27:11;29.15;;;19.38;;
64227;SDS011;50546;49.146;10.616;2022-08-19T06:29:36;29.15;;;19.80;;
64227;SDS011;50546;49.146;10.616;2022-08-19T06:32:03;28.52;;;19.58;;
64227;SDS011;50546;49.146;10.616;2022-08-19T06:34:29;32.38;;;20.02;;
64227;SDS011;50546;49.146;10.616;2022-08-19T06:36:57;30.10;;;20.20;;
64227;SDS011;50546;49.146;10.616;2022-08-19T06:39:26;27.88;;;19.83;;
64227;SDS011;50546;49.146;10.616;2022-08-19T06:41:55;31.52;;;19.98;;
64227;SDS011;50546;49.146;10.616;2022-08-19T06:44:23;27.88;;;19.17;;
64227;SDS011;50546;49.146;10.616;2022-08-19T06:46:51;35.38;;;20.05;;
64227;SDS011;50546;49.146;10.616;2022-08-19T06:49:17;29.25;;;18.92;;
64227;SDS011;50546;49.146;10.616;2022-08-19T06:51:43;28.77;;;19.70;;
64227;SDS011;50546;49.146;10.616;2022-08-19T06:54:12;30.27;;;20.25;;
64227;SDS011;50546;49.146;10.616;2022-08-19T06:56:38;28.35;;;18.95;;
64227;SDS011;50546;49.146;10.616;2022-08-19T06:59:05;26.88;;;18.58;;
64227;SDS011;50546;49.146;10.616;2022-08-19T07:01:36;30.60;;;19.83;;
64227;SDS011;50546;49.146;10.616;2022-08-19T07:04:03;27.38;;;19.15;;
64227;SDS011;50546;49.146;10.616;2022-08-19T07:06:29;29.88;;;19.48;;
64227;SDS011;50546;49.146;10.616;2022-08-19T07:08:55;29.38;;;19.27;;
64227;SDS011;50546;49.146;10.616;2022-08-19T07:11:23;30.80;;;20.10;;
64227;SDS011;50546;49.146;10.616;2022-08-19T07:13:48;28.77;;;20.05;;
64227;SDS011;50546;49.146;10.616;2022-08-19T07:16:16;27.17;;;18.35;;
64227;SDS011;50546;49.146;10.616;2022-08-19T07:18:44;28.45;;;19.83;;
64227;SDS011;50546;49.146;10.616;2022-08-19T07:21:15;30.27;;;20.05;;
64227;SDS011;50546;49.146;10.616;2022-08-19T07:23:43;28.70;;;18.42;;
64227;SDS011;50546;49.146;10.616;2022-08-19T07:26:10;28.63;;;19.42;;
64227;SDS011;50546;49.146;10.616;2022-08-19T07:28:36;27.38;;;18.75;;
64227;SDS011;50546;49.146;10.616;2022-08-19T07:31:09;30.95;;;19.98;;
64227;SDS011;50546;49.146;10.616;2022-08-19T07:36:02;30.15;;;19.70;;
64227;SDS011;50546;49.146;10.616;2022-08-19T07:38:29;28.35;;;19.05;;
64227;SDS011;50546;49.146;10.616;2022-08-19T07:40:54;31.02;;;20.13;;
64227;SDS011;50546;49.146;10.616;2022-08-19T07:43:19;28.58;;;19.83;;
64227;SDS011;50546;49.146;10.616;2022-08-19T07:45:50;30.10;;;19.97;;
64227;SDS011;50546;49.146;10.616;2022-08-19T07:48:17;28.40;;;19.60;;
64227;SDS011;50546;49.146;10.616;2022-08-19T07:50:43;29.65;;;19.48;;
64227;SDS011;50546;49.146;10.616;2022-08-19T07:53:09;27.92;;;18.75;;
64227;SDS011;50546;49.146;10.616;2022-08-19T07:55:34;29.73;;;19.17;;
64227;SDS011;50546;49.146;10.616;2022-08-19T07:57:59;31.23;;;20.27;;
64227;SDS011;50546;49.146;10.616;2022-08-19T08:00:25;29.75;;;19.48;;
64227;SDS011;50546;49.146;10.616;2022-08-19T08:02:52;30.30;;;18.90;;
64227;SDS011;50546;49.146;10.616;2022-08-19T08:05:18;31.08;;;20.13;;
64227;SDS011;50546;49.146;10.616;2022-08-19T08:08:01;27.30;;;19.05;;
64227;SDS011;50546;49.146;10.616;2022-08-19T08:10:45;26.60;;;18.40;;
64227;SDS011;50546;49.146;10.616;2022-08-19T08:13:11;25.90;;;18.00;;
64227;SDS011;50546;49.146;10.616;2022-08-19T08:15:37;28.25;;;19.02;;
64227;SDS011;50546;49.146;10.616;2022-08-19T08:18:03;24.63;;;17.63;;
64227;SDS011;50546;49.146;10.616;2022-08-19T08:20:29;25.30;;;18.17;;
64227;SDS011;50546;49.146;10.616;2022-08-19T08:22:55;26.00;;;18.05;;
64227;SDS011;50546;49.146;10.616;2022-08-19T08:25:38;24.20;;;17.48;;
64227;SDS011;50546;49.146;10.616;2022-08-19T08:28:04;26.13;;;18.33;;
64227;SDS011;50546;49.146;10.616;2022-08-19T08:30:30;27.40;;;17.67;;
64227;SDS011;50546;49.146;10.616;2022-08-19T08:32:57;24.25;;;17.83;;
64227;SDS011;50546;49.146;10.616;2022-08-19T08:35:23;25.65;;;17.23;;
64227;SDS011;50546;49.146;10.616;2022-08-19T08:37:49;25.70;;;17.92;;
64227;SDS011;50546;49.146;10.616;2022-08-19T08:40:19;24.80;;;17.38;;
64227;SDS011;50546;49.146;10.616;2022-08-19T08:42:51;24.15;;;17.23;;
64227;SDS011;50546;49.146;10.616;2022-08-19T08:45:27;24.42;;;16.92;;
64227;SDS011;50546;49.146;10.616;2022-08-19T08:47:53;24.20;;;16.23;;
64227;SDS011;50546;49.146;10.616;2022-08-19T08:50:28;22.60;;;16.65;;
64227;SDS011;50546;49.146;10.616;2022-08-19T08:53:05;24.70;;;16.63;;
64227;SDS011;50546;49.146;10.616;2022-08-19T08:55:33;23.23;;;16.20;;
64227;SDS011;50546;49.146;10.616;2022-08-19T08:58:01;24.95;;;17.15;;
64227;SDS011;50546;49.146;10.616;2022-08-19T09:00:32;21.00;;;15.55;;
64227;SDS011;50546;49.146;10.616;2022-08-19T09:03:00;22.73;;;15.80;;
64227;SDS011;50546;49.146;10.616;2022-08-19T09:05:31;19.33;;;14.75;;
64227;SDS011;50546;49.146;10.616;2022-08-19T09:08:22;18.92;;;14.18;;
64227;SDS011;50546;49.146;10.616;2022-08-19T09:10:58;23.75;;;16.40;;
64227;SDS011;50546;49.146;10.616;2022-08-19T09:13:35;23.83;;;16.67;;
64227;SDS011;50546;49.146;10.616;2022-08-19T09:16:22;24.10;;;17.15;;
64227;SDS011;50546;49.146;10.616;2022-08-19T09:18:52;23.15;;;16.45;;
64227;SDS011;50546;49.146;10.616;2022-08-19T09:21:20;23.80;;;16.73;;
64227;SDS011;50546;49.146;10.616;2022-08-19T09:23:47;24.83;;;16.90;;
64227;SDS011;50546;49.146;10.616;2022-08-19T09:26:14;24.98;;;17.95;;
64227;SDS011;50546;49.146;10.616;2022-08-19T09:28:41;23.50;;;16.35;;
64227;SDS011;50546;49.146;10.616;2022-08-19T09:31:09;22.70;;;16.02;;
64227;SDS011;50546;49.146;10.616;2022-08-19T09:33:36;22.27;;;16.48;;
64227;SDS011;50546;49.146;10.616;2022-08-19T09:36:08;22.75;;;17.10;;
64227;SDS011;50546;49.146;10.616;2022-08-19T09:38:36;23.92;;;16.75;;
64227;SDS011;50546;49.146;10.616;2022-08-19T09:41:05;26.00;;;17.88;;
64227;SDS011;50546;49.146;10.616;2022-08-19T09:43:33;23.88;;;17.20;;
64227;SDS011;50546;49.146;10.616;2022-08-19T09:46:05;24.25;;;17.08;;
64227;SDS011;50546;49.146;10.616;2022-08-19T09:48:32;23.50;;;17.25;;
64227;SDS011;50546;49.146;10.616;2022-08-19T09:51:02;25.42;;;17.17;;
64227;SDS011;50546;49.146;10.616;2022-08-19T09:53:33;24.42;;;17.30;;
64227;SDS011;50546;49.146;10.616;2022-08-19T09:55:59;24.73;;;17.75;;
64227;SDS011;50546;49.146;10.616;2022-08-19T09:58:24;27.60;;;17.33;;
64227;SDS011;50546;49.146;10.616;2022-08-19T10:00:53;23.95;;;17.23;;
64227;SDS011;50546;49.146;10.616;2022-08-19T10:03:23;24.65;;;17.65;;
64227;SDS011;50546;49.146;10.616;2022-08-19T10:05:48;24.10;;;16.67;;
64227;SDS011;50546;49.146;10.616;2022-08-19T10:08:36;24.05;;;17.23;;
64227;SDS011;50546;49.146;10.616;2022-08-19T10:11:01;24.40;;;17.15;;
64227;SDS011;50546;49.146;10.616;2022-08-19T10:13:29;25.58;;;17.40;;
64227;SDS011;50546;49.146;10.616;2022-08-19T10:16:02;25.90;;;17.92;;
64227;SDS011;50546;49.146;10.616;2022-08-19T10:18:32;26.02;;;18.00;;
64227;SDS011;50546;49.146;10.616;2022-08-19T10:21:10;24.30;;;17.02;;
64227;SDS011;50546;49.146;10.616;2022-08-19T10:23:39;24.45;;;17.05;;
64227;SDS011;50546;49.146;10.616;2022-08-19T10:26:09;27.95;;;18.27;;
64227;SDS011;50546;49.146;10.616;2022-08-19T10:28:38;24.73;;;18.15;;
64227;SDS011;50546;49.146;10.616;2022-08-19T10:31:15;23.67;;;17.67;;
64227;SDS011;50546;49.146;10.616;2022-08-19T10:33:44;23.80;;;17.03;;
64227;SDS011;50546;49.146;10.616;2022-08-19T10:36:12;23.63;;;17.52;;
64227;SDS011;50546;49.146;10.616;2022-08-19T10:38:40;23.27;;;16.92;;
64227;SDS011;50546;49.146;10.616;2022-08-19T10:41:28;26.20;;;17.20;;
64227;SDS011;50546;49.146;10.616;2022-08-19T10:43:58;22.50;;;17.42;;
64227;SDS011;50546;49.146;10.616;2022-08-19T10:46:27;24.58;;;17.13;;
64227;SDS011;50546;49.146;10.616;2022-08-19T10:48:53;23.95;;;16.30;;
64227;SDS011;50546;49.146;10.616;2022-08-19T10:51:19;20.75;;;15.88;;
64227;SDS011;50546;49.146;10.616;2022-08-19T10:54:04;23.15;;;17.17;;
64227;SDS011;50546;49.146;10.616;2022-08-19T10:56:29;21.17;;;16.13;;
64227;SDS011;50546;49.146;10.616;2022-08-19T10:59:14;22.42;;;15.13;;
64227;SDS011;50546;49.146;10.616;2022-08-19T11:01:40;21.95;;;15.63;;
64227;SDS011;50546;49.146;10.616;2022-08-19T11:04:07;21.10;;;16.15;;
64227;SDS011;50546;49.146;10.616;2022-08-19T11:06:38;22.13;;;16.10;;
64227;SDS011;50546;49.146;10.616;2022-08-19T11:09:06;21.48;;;15.82;;
64227;SDS011;50546;49.146;10.616;2022-08-19T11:11:32;23.13;;;16.25;;
64227;SDS011;50546;49.146;10.616;2022-08-19T11:13:59;25.02;;;16.98;;
64227;SDS011;50546;49.146;10.616;2022-08-19T11:16:25;23.52;;;16.65;;
64227;SDS011;50546;49.146;10.616;2022-08-19T11:18:55;23.33;;;16.90;;
64227;SDS011;50546;49.146;10.616;2022-08-19T11:21:30;25.63;;;16.20;;
64227;SDS011;50546;49.146;10.616;2022-08-19T11:23:58;22.10;;;16.23;;
64227;SDS011;50546;49.146;10.616;2022-08-19T11:26:26;24.25;;;16.08;;
64227;SDS011;50546;49.146;10.616;2022-08-19T11:28:53;23.88;;;17.25;;
64227;SDS011;50546;49.146;10.616;2022-08-19T11:31:20;26.83;;;17.27;;
64227;SDS011;50546;49.146;10.616;2022-08-19T11:33:48;23.52;;;17.30;;
64227;SDS011;50546;49.146;10.616;2022-08-19T11:36:16;24.45;;;17.83;;
64227;SDS011;50546;49.146;10.616;2022-08-19T11:38:42;23.08;;;17.23;;
64227;SDS011;50546;49.146;10.616;2022-08-19T11:41:08;23.17;;;17.67;;
64227;SDS011;50546;49.146;10.616;2022-08-19T11:43:34;24.98;;;17.98;;
64227;SDS011;50546;49.146;10.616;2022-08-19T11:46:03;25.92;;;18.05;;
64227;SDS011;50546;49.146;10.616;2022-08-19T11:48:31;25.67;;;18.73;;
64227;SDS011;50546;49.146;10.616;2022-08-19T11:50:56;23.75;;;18.13;;
64227;SDS011;50546;49.146;10.616;2022-08-19T11:53:22;25.42;;;18.40;;
64227;SDS011;50546;49.146;10.616;2022-08-19T11:55:48;26.35;;;18.35;;
64227;SDS011;50546;49.146;10.616;2022-08-19T11:58:15;27.40;;;18.75;;
64227;SDS011;50546;49.146;10.616;2022-08-19T12:00:42;28.08;;;19.08;;
64227;SDS011;50546;49.146;10.616;2022-08-19T12:03:10;27.38;;;19.48;;
64227;SDS011;50546;49.146;10.616;2022-08-19T12:05:38;25.40;;;19.02;;
64227;SDS011;50546;49.146;10.616;2022-08-19T12:08:04;29.15;;;20.95;;
64227;SDS011;50546;49.146;10.616;2022-08-19T12:10:30;28.85;;;21.42;;
64227;SDS011;50546;49.146;10.616;2022-08-19T12:12:55;31.13;;;21.98;;
64227;SDS011;50546;49.146;10.616;2022-08-19T12:15:21;34.25;;;23.17;;
64227;SDS011;50546;49.146;10.616;2022-08-19T12:17:46;34.90;;;24.05;;
64227;SDS011;50546;49.146;10.616;2022-08-19T12:20:12;30.98;;;23.23;;
64227;SDS011;50546;49.146;10.616;2022-08-19T12:22:40;31.30;;;24.17;;
64227;SDS011;50546;49.146;10.616;2022-08-19T12:25:07;34.05;;;24.77;;
64227;SDS011;50546;49.146;10.616;2022-08-19T12:27:35;37.45;;;24.92;;
64227;SDS011;50546;49.146;10.616;2022-08-19T12:30:01;36.03;;;24.90;;
64227;SDS011;50546;49.146;10.616;2022-08-19T12:32:28;37.38;;;25.30;;
64227;SDS011;50546;49.146;10.616;2022-08-19T12:34:54;41.00;;;25.92;;
64227;SDS011;50546;49.146;10.616;2022-08-19T12:37:20;39.22;;;26.52;;
64227;SDS011;50546;49.146;10.616;2022-08-19T12:39:45;40.13;;;27.25;;
64227;SDS011;50546;49.146;10.616;2022-08-19T12:42:11;43.65;;;29.52;;
64227;SDS011;50546;49.146;10.616;2022-08-19T12:44:38;41.83;;;28.40;;
64227;SDS011;50546;49.146;10.616;2022-08-19T12:47:06;38.92;;;27.70;;
64227;SDS011;50546;49.146;10.616;2022-08-19T12:49:32;41.88;;;28.10;;
64227;SDS011;50546;49.146;10.616;2022-08-19T12:51:59;41.55;;;27.77;;
64227;SDS011;50546;49.146;10.616;2022-08-19T12:54:25;37.38;;;26.77;;
64227;SDS011;50546;49.146;10.616;2022-08-19T12:56:51;38.83;;;27.17;;
64227;SDS011;50546;49.146;10.616;2022-08-19T12:59:16;37.05;;;26.88;;
64227;SDS011;50546;49.146;10.616;2022-08-19T13:01:43;36.83;;;26.83;;
64227;SDS011;50546;49.146;10.616;2022-08-19T13:04:09;40.03;;;27.15;;
64227;SDS011;50546;49.146;10.616;2022-08-19T13:06:35;37.40;;;26.35;;
64227;SDS011;50546;49.146;10.616;2022-08-19T13:09:01;35.90;;;26.23;;
64227;SDS011;50546;49.146;10.616;2022-08-19T13:11:27;38.08;;;26.10;;
64227;SDS011;50546;49.146;10.616;2022-08-19T13:13:57;33.20;;;24.90;;
64227;SDS011;50546;49.146;10.616;2022-08-19T13:16:23;33.03;;;25.02;;
64227;SDS011;50546;49.146;10.616;2022-08-19T13:18:48;37.42;;;25.90;;
64227;SDS011;50546;49.146;10.616;2022-08-19T13:21:17;32.08;;;24.60;;
64227;SDS011;50546;49.146;10.616;2022-08-19T13:23:45;32.05;;;23.67;;
64227;SDS011;50546;49.146;10.616;2022-08-19T13:26:11;31.70;;;23.50;;
64227;SDS011;50546;49.146;10.616;2022-08-19T13:28:37;29.77;;;23.17;;
64227;SDS011;50546;49.146;10.616;2022-08-19T13:31:23;29.27;;;22.13;;
64227;SDS011;50546;49.146;10.616;2022-08-19T13:34:08;29.35;;;22.10;;
64227;SDS011;50546;49.146;10.616;2022-08-19T13:36:34;29.33;;;22.65;;
64227;SDS011;50546;49.146;10.616;2022-08-19T13:39:01;32.20;;;22.98;;
64227;SDS011;50546;49.146;10.616;2022-08-19T13:41:27;33.45;;;22.90;;
64227;SDS011;50546;49.146;10.616;2022-08-19T13:43:52;31.23;;;22.02;;
64227;SDS011;50546;49.146;10.616;2022-08-19T13:46:19;30.25;;;21.50;;
64227;SDS011;50546;49.146;10.616;2022-08-19T13:48:45;27.50;;;21.10;;
64227;SDS011;50546;49.146;10.616;2022-08-19T13:51:10;28.45;;;20.88;;
64227;SDS011;50546;49.146;10.616;2022-08-19T13:53:36;27.33;;;21.50;;
64227;SDS011;50546;49.146;10.616;2022-08-19T13:56:06;28.02;;;21.40;;
64227;SDS011;50546;49.146;10.616;2022-08-19T13:58:33;30.55;;;20.98;;
64227;SDS011;50546;49.146;10.616;2022-08-19T14:00:58;27.05;;;20.95;;
64227;SDS011;50546;49.146;10.616;2022-08-19T14:03:24;27.38;;;21.75;;
64227;SDS011;50546;49.146;10.616;2022-08-19T14:05:50;27.55;;;21.60;;
64227;SDS011;50546;49.146;10.616;2022-08-19T14:08:15;29.45;;;21.92;;
64227;SDS011;50546;49.146;10.616;2022-08-19T14:10:41;31.13;;;21.85;;
64227;SDS011;50546;49.146;10.616;2022-08-19T14:13:09;37.20;;;24.08;;
64227;SDS011;50546;49.146;10.616;2022-08-19T14:15:34;37.60;;;25.73;;
64227;SDS011;50546;49.146;10.616;2022-08-19T14:17:59;37.88;;;26.33;;